createdAt,value
2019-03-18T00:00:01.154Z,785.01
2019-03-18T00:00:05.410Z,785.02
2019-03-18T00:00:09.707Z,785.04
2019-03-18T00:00:14.007Z,784.99
2019-03-18T00:00:18.314Z,784.98
2019-03-18T00:00:22.615Z,785.01
2019-03-18T00:00:26.990Z,785.01
2019-03-18T00:00:31.198Z,785.05
2019-03-18T00:00:35.503Z,785.07
2019-03-18T00:00:39.714Z,785.08
2019-03-18T00:00:44.012Z,785.11
2019-03-18T00:00:48.307Z,785.07
2019-03-18T00:00:52.614Z,785.09
2019-03-18T00:00:56.813Z,785.04
2019-03-18T00:01:01.010Z,785.11
2019-03-18T00:01:05.310Z,785.12
2019-03-18T00:01:09.505Z,785.12
2019-03-18T00:01:13.799Z,785.02
2019-03-18T00:01:18.090Z,785.06
2019-03-18T00:01:22.395Z,785.06
2019-03-18T00:01:26.593Z,785.08
2019-03-18T00:01:30.932Z,785.04
2019-03-18T00:01:35.222Z,785.09
2019-03-18T00:01:39.415Z,785.06
2019-03-18T00:01:43.727Z,785.14
2019-03-18T00:01:47.831Z,785.13
2019-03-18T00:01:52.122Z,785.12
2019-03-18T00:01:56.420Z,785.16
2019-03-18T00:02:00.782Z,785.15
2019-03-18T00:02:05.072Z,785.17
2019-03-18T00:02:09.366Z,785.12
2019-03-18T00:02:13.703Z,785.1
2019-03-18T00:02:17.992Z,785.12
2019-03-18T00:02:22.276Z,785.14
2019-03-18T00:02:26.566Z,785.13
2019-03-18T00:02:30.857Z,785.14
2019-03-18T00:02:35.142Z,785.15
2019-03-18T00:02:39.456Z,785.11
2019-03-18T00:02:43.749Z,785.18
2019-03-18T00:02:48.040Z,785.2
2019-03-18T00:02:52.337Z,785.16
2019-03-18T00:02:56.700Z,785.16
2019-03-18T00:03:00.932Z,785.18
2019-03-18T00:03:05.270Z,785.21
2019-03-18T00:03:09.474Z,785.19
2019-03-18T00:03:13.664Z,785.21
2019-03-18T00:03:17.961Z,785.23
2019-03-18T00:03:22.334Z,785.19
2019-03-18T00:03:26.566Z,785.15
2019-03-18T00:03:30.860Z,785.2
2019-03-18T00:03:35.150Z,785.22
2019-03-18T00:03:39.454Z,785.2
2019-03-18T00:03:43.737Z,785.18
2019-03-18T00:03:48.100Z,785.2
2019-03-18T00:03:52.401Z,785.18
2019-03-18T00:03:56.673Z,785.18
2019-03-18T00:04:00.963Z,785.2
2019-03-18T00:04:05.253Z,785.19
2019-03-18T00:04:09.602Z,785.2
2019-03-18T00:04:13.892Z,785.21
2019-03-18T00:04:18.198Z,785.24
2019-03-18T00:04:22.489Z,785.22
2019-03-18T00:04:26.776Z,785.18
2019-03-18T00:04:31.060Z,785.21
2019-03-18T00:04:35.347Z,785.2
2019-03-18T00:04:39.642Z,785.23
2019-03-18T00:04:43.937Z,785.19
2019-03-18T00:04:48.225Z,785.19
2019-03-18T00:04:52.527Z,785.2
2019-03-18T00:04:56.822Z,785.2
2019-03-18T00:05:01.121Z,785.15
2019-03-18T00:05:05.319Z,785.13
2019-03-18T00:05:09.634Z,785.1
2019-03-18T00:05:13.923Z,785.1
2019-03-18T00:05:18.300Z,785.09
2019-03-18T00:05:22.601Z,785.1
2019-03-18T00:05:26.920Z,785.11
2019-03-18T00:05:31.130Z,785.12
2019-03-18T00:05:35.337Z,785.11
2019-03-18T00:05:39.633Z,785.11
2019-03-18T00:05:43.927Z,785.13
2019-03-18T00:05:48.132Z,785.07
2019-03-18T00:05:52.427Z,785.05
2019-03-18T00:05:56.717Z,785.04
2019-03-18T00:06:01.035Z,785.03
2019-03-18T00:06:05.533Z,785.02
2019-03-18T00:06:09.819Z,785.02
2019-03-18T00:06:13.911Z,785.07
2019-03-18T00:06:18.224Z,785.14
2019-03-18T00:06:22.428Z,785.13
2019-03-18T00:06:26.717Z,785.09
2019-03-18T00:06:30.941Z,785.12
2019-03-18T00:06:35.138Z,785.1
2019-03-18T00:06:39.439Z,785.06
2019-03-18T00:06:43.728Z,785.12
2019-03-18T00:06:48.029Z,785.13
2019-03-18T00:06:52.319Z,785.1
2019-03-18T00:06:56.624Z,785.11
2019-03-18T00:07:00.919Z,785.13
2019-03-18T00:07:05.116Z,785.13
2019-03-18T00:07:09.411Z,785.14
2019-03-18T00:07:13.700Z,785.16
2019-03-18T00:07:17.990Z,785.15
2019-03-18T00:07:22.280Z,785.16
2019-03-18T00:07:26.573Z,785.17
2019-03-18T00:07:30.856Z,785.16
2019-03-18T00:07:35.058Z,785.2
2019-03-18T00:07:39.345Z,785.2
2019-03-18T00:07:43.654Z,785.21
2019-03-18T00:07:47.959Z,785.18
2019-03-18T00:07:52.328Z,785.18
2019-03-18T00:07:56.623Z,785.14
2019-03-18T00:08:00.935Z,785.11
2019-03-18T00:08:05.266Z,785.15
2019-03-18T00:08:09.585Z,785.22
2019-03-18T00:08:13.887Z,785.18
2019-03-18T00:08:18.248Z,785.18
2019-03-18T00:08:22.552Z,785.27
2019-03-18T00:08:26.848Z,785.23
2019-03-18T00:08:31.059Z,785.25
2019-03-18T00:08:35.264Z,785.26
2019-03-18T00:08:39.564Z,785.23
2019-03-18T00:08:43.763Z,785.23
2019-03-18T00:08:48.062Z,785.25
2019-03-18T00:08:52.425Z,785.24
2019-03-18T00:08:56.709Z,785.24
2019-03-18T00:09:01.034Z,785.27
2019-03-18T00:09:05.326Z,785.28
2019-03-18T00:09:09.634Z,785.27
2019-03-18T00:09:13.940Z,785.29
2019-03-18T00:09:18.267Z,785.28
2019-03-18T00:09:22.464Z,785.3
2019-03-18T00:09:26.553Z,785.31
2019-03-18T00:09:30.845Z,785.28
2019-03-18T00:09:35.133Z,785.25
2019-03-18T00:09:39.448Z,785.28
2019-03-18T00:09:43.764Z,785.27
2019-03-18T00:09:48.050Z,785.28
2019-03-18T00:09:52.362Z,785.31
2019-03-18T00:09:56.577Z,785.26
2019-03-18T00:10:01.103Z,785.27
2019-03-18T00:10:05.208Z,785.26
2019-03-18T00:10:09.503Z,785.29
2019-03-18T00:10:13.801Z,785.28
2019-03-18T00:10:18.006Z,785.3
2019-03-18T00:10:22.305Z,785.32
2019-03-18T00:10:26.515Z,785.3
2019-03-18T00:10:30.717Z,785.25
2019-03-18T00:10:34.914Z,785.33
2019-03-18T00:10:39.206Z,785.31
2019-03-18T00:10:43.407Z,785.3
2019-03-18T00:10:47.676Z,785.27
2019-03-18T00:10:52.044Z,785.32
2019-03-18T00:10:56.242Z,785.33
2019-03-18T00:11:00.438Z,785.29
2019-03-18T00:11:04.726Z,785.26
2019-03-18T00:11:09.098Z,785.3
2019-03-18T00:11:13.272Z,785.34
2019-03-18T00:11:17.573Z,785.3
2019-03-18T00:11:21.862Z,785.28
2019-03-18T00:11:25.962Z,785.28
2019-03-18T00:11:30.261Z,785.26
2019-03-18T00:11:34.558Z,785.28
2019-03-18T00:11:38.758Z,785.28
2019-03-18T00:11:43.054Z,785.27
2019-03-18T00:11:47.153Z,785.31
2019-03-18T00:11:51.445Z,785.27
2019-03-18T00:11:55.739Z,785.31
2019-03-18T00:12:00.004Z,785.3
2019-03-18T00:12:04.333Z,785.32
2019-03-18T00:12:08.640Z,785.29
2019-03-18T00:12:12.926Z,785.29
2019-03-18T00:12:17.225Z,785.3
2019-03-18T00:12:21.514Z,785.29
2019-03-18T00:12:25.839Z,785.32
2019-03-18T00:12:30.031Z,785.36
2019-03-18T00:12:34.235Z,785.34
2019-03-18T00:12:38.523Z,785.31
2019-03-18T00:12:42.818Z,785.37
2019-03-18T00:12:47.114Z,785.33
2019-03-18T00:12:54.320Z,785.37
2019-03-18T00:12:58.622Z,785.33
2019-03-18T00:13:03.116Z,785.38
2019-03-18T00:13:07.318Z,785.35
2019-03-18T00:13:11.538Z,785.36
2019-03-18T00:13:15.631Z,785.37
2019-03-18T00:13:19.830Z,785.34
2019-03-18T00:13:24.122Z,785.3
2019-03-18T00:13:28.421Z,785.32
2019-03-18T00:13:32.730Z,785.28
2019-03-18T00:13:37.019Z,785.33
2019-03-18T00:13:41.317Z,785.31
2019-03-18T00:13:45.604Z,785.35
2019-03-18T00:13:49.904Z,785.33
2019-03-18T00:13:54.196Z,785.31
2019-03-18T00:13:58.512Z,785.34
2019-03-18T00:14:02.800Z,785.36
2019-03-18T00:14:07.098Z,785.33
2019-03-18T00:14:11.389Z,785.35
2019-03-18T00:14:15.612Z,785.34
2019-03-18T00:14:19.943Z,785.32
2019-03-18T00:14:24.241Z,785.36
2019-03-18T00:14:28.621Z,785.29
2019-03-18T00:14:32.816Z,785.3
2019-03-18T00:14:37.110Z,785.27
2019-03-18T00:14:41.392Z,785.28
2019-03-18T00:14:45.685Z,785.3
2019-03-18T00:15:03.130Z,785.35
2019-03-18T00:15:07.433Z,785.32
2019-03-18T00:15:11.730Z,785.34
2019-03-18T00:15:15.930Z,785.36
2019-03-18T00:15:20.222Z,785.37
2019-03-18T00:15:24.422Z,785.36
2019-03-18T00:15:28.730Z,785.35
2019-03-18T00:15:33.054Z,785.35
2019-03-18T00:15:37.253Z,785.32
2019-03-18T00:15:41.544Z,785.33
2019-03-18T00:15:45.747Z,785.34
2019-03-18T00:15:49.940Z,785.33
2019-03-18T00:15:54.138Z,785.31
2019-03-18T00:15:58.425Z,785.34
2019-03-18T00:16:02.785Z,785.34
2019-03-18T00:16:07.096Z,785.34
2019-03-18T00:16:11.298Z,785.33
2019-03-18T00:16:15.593Z,785.32
2019-03-18T00:16:19.894Z,785.28
2019-03-18T00:16:24.095Z,785.31
2019-03-18T00:16:28.388Z,785.36
2019-03-18T00:16:32.685Z,785.35
2019-03-18T00:16:36.907Z,785.33
2019-03-18T00:16:41.100Z,785.33
2019-03-18T00:16:45.410Z,785.34
2019-03-18T00:16:49.651Z,785.35
2019-03-18T00:16:53.842Z,785.31
2019-03-18T00:16:58.135Z,785.31
2019-03-18T00:17:02.380Z,785.33
2019-03-18T00:17:06.678Z,785.33
2019-03-18T00:17:10.986Z,785.34
2019-03-18T00:17:15.295Z,785.32
2019-03-18T00:17:19.598Z,785.33
2019-03-18T00:17:23.814Z,785.33
2019-03-18T00:17:28.099Z,785.36
2019-03-18T00:17:32.307Z,785.34
2019-03-18T00:17:36.604Z,785.32
2019-03-18T00:17:40.905Z,785.36
2019-03-18T00:17:45.003Z,785.29
2019-03-18T00:17:49.297Z,785.33
2019-03-18T00:17:53.610Z,785.35
2019-03-18T00:17:57.801Z,785.33
2019-03-18T00:18:02.096Z,785.38
2019-03-18T00:18:06.209Z,785.38
2019-03-18T00:18:10.498Z,785.34
2019-03-18T00:18:14.798Z,785.35
2019-03-18T00:18:19.089Z,785.34
2019-03-18T00:18:23.382Z,785.35
2019-03-18T00:18:27.574Z,785.34
2019-03-18T00:18:31.879Z,785.32
2019-03-18T00:18:36.170Z,785.37
2019-03-18T00:18:40.459Z,785.39
2019-03-18T00:18:44.761Z,785.37
2019-03-18T00:18:49.070Z,785.39
2019-03-18T00:18:53.267Z,785.39
2019-03-18T00:18:57.564Z,785.37
2019-03-18T00:19:01.958Z,785.36
2019-03-18T00:19:06.153Z,785.4
2019-03-18T00:19:10.345Z,785.39
2019-03-18T00:19:14.547Z,785.37
2019-03-18T00:19:18.837Z,785.32
2019-03-18T00:19:23.096Z,785.38
2019-03-18T00:19:27.402Z,785.38
2019-03-18T00:19:31.695Z,785.37
2019-03-18T00:19:35.908Z,785.37
2019-03-18T00:19:42.814Z,785.36
2019-03-18T00:19:47.404Z,785.38
2019-03-18T00:19:51.701Z,785.37
2019-03-18T00:19:55.901Z,785.35
2019-03-18T00:20:00.244Z,785.36
2019-03-18T00:20:04.726Z,785.39
2019-03-18T00:20:09.102Z,785.34
2019-03-18T00:20:13.307Z,785.38
2019-03-18T00:20:17.624Z,785.37
2019-03-18T00:20:21.933Z,785.32
2019-03-18T00:20:26.324Z,785.36
2019-03-18T00:20:30.616Z,785.33
2019-03-18T00:20:34.969Z,785.37
2019-03-18T00:20:39.261Z,785.33
2019-03-18T00:20:43.550Z,785.31
2019-03-18T00:20:47.854Z,785.33
2019-03-18T00:20:52.150Z,785.35
2019-03-18T00:20:56.440Z,785.31
2019-03-18T00:21:00.729Z,785.28
2019-03-18T00:21:05.032Z,785.32
2019-03-18T00:21:09.341Z,785.32
2019-03-18T00:21:13.544Z,785.3
2019-03-18T00:21:17.839Z,785.32
2019-03-18T00:21:22.152Z,785.31
2019-03-18T00:21:26.439Z,785.32
2019-03-18T00:21:30.554Z,785.33
2019-03-18T00:21:34.888Z,785.34
2019-03-18T00:21:39.088Z,785.32
2019-03-18T00:21:43.378Z,785.32
2019-03-18T00:21:47.671Z,785.33
2019-03-18T00:21:51.863Z,785.28
2019-03-18T00:21:55.971Z,785.28
2019-03-18T00:22:00.279Z,785.33
2019-03-18T00:22:04.584Z,785.28
2019-03-18T00:22:08.690Z,785.35
2019-03-18T00:22:13.000Z,785.29
2019-03-18T00:22:17.314Z,785.3
2019-03-18T00:22:21.512Z,785.29
2019-03-18T00:22:25.805Z,785.3
2019-03-18T00:22:30.098Z,785.32
2019-03-18T00:22:34.437Z,785.32
2019-03-18T00:22:38.738Z,785.32
2019-03-18T00:22:43.027Z,785.3
2019-03-18T00:22:47.413Z,785.3
2019-03-18T00:22:51.626Z,785.29
2019-03-18T00:22:55.723Z,785.3
2019-03-18T00:23:00.017Z,785.31
2019-03-18T00:23:04.514Z,785.3
2019-03-18T00:23:08.865Z,785.28
2019-03-18T00:23:13.070Z,785.28
2019-03-18T00:23:17.361Z,785.34
2019-03-18T00:23:21.658Z,785.3
2019-03-18T00:23:25.953Z,785.31
2019-03-18T00:23:30.269Z,785.27
2019-03-18T00:23:34.613Z,785.27
2019-03-18T00:23:38.907Z,785.26
2019-03-18T00:23:43.200Z,785.27
2019-03-18T00:23:47.490Z,785.24
2019-03-18T00:23:51.793Z,785.22
2019-03-18T00:23:56.067Z,785.21
2019-03-18T00:24:00.357Z,785.2
2019-03-18T00:24:04.649Z,785.2
2019-03-18T00:24:08.854Z,785.2
2019-03-18T00:24:13.053Z,785.17
2019-03-18T00:24:17.407Z,785.21
2019-03-18T00:24:21.702Z,785.22
2019-03-18T00:24:25.989Z,785.2
2019-03-18T00:24:30.196Z,785.2
2019-03-18T00:24:34.390Z,785.11
2019-03-18T00:24:38.676Z,785.21
2019-03-18T00:24:42.879Z,785.22
2019-03-18T00:24:47.075Z,785.19
2019-03-18T00:24:51.373Z,785.19
2019-03-18T00:24:55.636Z,785.15
2019-03-18T00:24:59.983Z,785.16
2019-03-18T00:25:04.283Z,785.22
2019-03-18T00:25:08.656Z,785.21
2019-03-18T00:25:12.944Z,785.24
2019-03-18T00:25:17.237Z,785.18
2019-03-18T00:25:21.624Z,785.2
2019-03-18T00:25:25.938Z,785.21
2019-03-18T00:25:30.137Z,785.24
2019-03-18T00:25:34.433Z,785.25
2019-03-18T00:25:38.827Z,785.2
2019-03-18T00:25:43.141Z,785.23
2019-03-18T00:25:47.452Z,785.23
2019-03-18T00:25:51.663Z,785.2
2019-03-18T00:25:55.857Z,785.18
2019-03-18T00:26:00.148Z,785.2
2019-03-18T00:26:04.439Z,785.2
2019-03-18T00:26:08.731Z,785.2
2019-03-18T00:26:13.017Z,785.21
2019-03-18T00:26:17.329Z,785.23
2019-03-18T00:26:21.624Z,785.21
2019-03-18T00:26:25.824Z,785.2
2019-03-18T00:26:30.025Z,785.23
2019-03-18T00:26:34.330Z,785.23
2019-03-18T00:26:38.630Z,785.21
2019-03-18T00:26:42.911Z,785.19
2019-03-18T00:26:47.230Z,785.21
2019-03-18T00:26:51.327Z,785.22
2019-03-18T00:26:55.618Z,785.23
2019-03-18T00:26:59.907Z,785.21
2019-03-18T00:27:04.317Z,785.19
2019-03-18T00:27:08.519Z,785.16
2019-03-18T00:27:12.804Z,785.19
2019-03-18T00:27:17.093Z,785.17
2019-03-18T00:27:21.383Z,785.18
2019-03-18T00:27:25.726Z,785.19
2019-03-18T00:27:30.034Z,785.23
2019-03-18T00:27:34.336Z,785.18
2019-03-18T00:27:38.566Z,785.17
2019-03-18T00:27:42.871Z,785.2
2019-03-18T00:27:47.067Z,785.19
2019-03-18T00:27:51.362Z,785.18
2019-03-18T00:27:55.670Z,785.16
2019-03-18T00:27:59.893Z,785.14
2019-03-18T00:28:04.158Z,785.16
2019-03-18T00:28:08.454Z,785.14
2019-03-18T00:28:12.755Z,785.14
2019-03-18T00:28:17.053Z,785.14
2019-03-18T00:28:21.349Z,785.09
2019-03-18T00:28:25.642Z,785.14
2019-03-18T00:28:29.933Z,785.14
2019-03-18T00:28:34.240Z,785.15
2019-03-18T00:28:38.528Z,785.07
2019-03-18T00:28:42.822Z,785.11
2019-03-18T00:28:47.108Z,785.14
2019-03-18T00:28:51.338Z,785.14
2019-03-18T00:28:55.714Z,785.13
2019-03-18T00:29:00.029Z,785.18
2019-03-18T00:29:04.325Z,785.15
2019-03-18T00:29:08.526Z,785.15
2019-03-18T00:29:12.818Z,785.12
2019-03-18T00:29:17.115Z,785.14
2019-03-18T00:29:21.229Z,785.16
2019-03-18T00:29:25.431Z,785.1
2019-03-18T00:29:29.741Z,785.08
2019-03-18T00:29:33.759Z,785.12
2019-03-18T00:29:38.074Z,785.14
2019-03-18T00:29:42.190Z,785.15
2019-03-18T00:29:46.393Z,785.14
2019-03-18T00:29:50.589Z,785.11
2019-03-18T00:29:54.906Z,785.15
2019-03-18T00:29:59.103Z,785.13
2019-03-18T00:30:03.398Z,785.13
2019-03-18T00:30:07.693Z,785.14
2019-03-18T00:30:12.010Z,785.14
2019-03-18T00:30:16.319Z,785.14
2019-03-18T00:30:20.472Z,785.19
2019-03-18T00:30:24.688Z,785.15
2019-03-18T00:30:28.902Z,785.17
2019-03-18T00:30:33.110Z,785.13
2019-03-18T00:30:37.413Z,785.11
2019-03-18T00:30:41.722Z,785.13
2019-03-18T00:30:46.012Z,785.15
2019-03-18T00:30:50.297Z,785.13
2019-03-18T00:30:54.584Z,785.12
2019-03-18T00:30:58.898Z,785.12
2019-03-18T00:31:03.187Z,785.1
2019-03-18T00:31:07.296Z,785.13
2019-03-18T00:31:11.586Z,785.1
2019-03-18T00:31:15.875Z,785.08
2019-03-18T00:31:20.159Z,785.15
2019-03-18T00:31:24.448Z,785.18
2019-03-18T00:31:28.734Z,785.09
2019-03-18T00:31:33.104Z,785.11
2019-03-18T00:31:37.400Z,785.16
2019-03-18T00:31:41.591Z,785.16
2019-03-18T00:31:45.883Z,785.14
2019-03-18T00:31:50.076Z,785.13
2019-03-18T00:31:54.363Z,785.11
2019-03-18T00:31:58.741Z,785.07
2019-03-18T00:32:03.038Z,785.05
2019-03-18T00:32:07.404Z,785.1
2019-03-18T00:32:11.693Z,785.1
2019-03-18T00:32:15.887Z,785.12
2019-03-18T00:32:20.175Z,785.08
2019-03-18T00:32:24.386Z,785.13
2019-03-18T00:32:28.689Z,785.07
2019-03-18T00:32:32.972Z,785.05
2019-03-18T00:32:37.263Z,785.11
2019-03-18T00:32:41.556Z,785.07
2019-03-18T00:32:45.844Z,785.05
2019-03-18T00:32:50.141Z,785.07
2019-03-18T00:32:54.342Z,785.06
2019-03-18T00:32:58.634Z,784.98
2019-03-18T00:33:05.989Z,785.02
2019-03-18T00:33:10.289Z,784.97
2019-03-18T00:33:14.586Z,784.99
2019-03-18T00:33:18.872Z,785.01
2019-03-18T00:33:23.171Z,784.95
2019-03-18T00:33:27.363Z,784.97
2019-03-18T00:33:31.508Z,784.96
2019-03-18T00:33:35.825Z,784.94
2019-03-18T00:33:40.135Z,784.96
2019-03-18T00:33:44.341Z,784.92
2019-03-18T00:33:48.718Z,784.93
2019-03-18T00:33:52.922Z,784.91
2019-03-18T00:33:57.212Z,784.93
2019-03-18T00:34:01.482Z,784.94
2019-03-18T00:34:05.792Z,784.92
2019-03-18T00:34:10.090Z,784.93
2019-03-18T00:34:14.389Z,784.9
2019-03-18T00:34:18.679Z,784.92
2019-03-18T00:34:22.951Z,784.92
2019-03-18T00:34:27.285Z,784.9
2019-03-18T00:34:31.584Z,784.92
2019-03-18T00:34:35.877Z,784.94
2019-03-18T00:34:40.173Z,784.92
2019-03-18T00:34:44.370Z,784.92
2019-03-18T00:34:48.662Z,784.91
2019-03-18T00:34:52.962Z,784.92
2019-03-18T00:34:57.262Z,784.91
2019-03-18T00:35:01.590Z,784.95
2019-03-18T00:35:06.276Z,784.88
2019-03-18T00:35:10.478Z,784.92
2019-03-18T00:35:14.782Z,784.92
2019-03-18T00:35:19.102Z,784.9
2019-03-18T00:35:23.306Z,784.9
2019-03-18T00:35:27.518Z,784.9
2019-03-18T00:35:31.831Z,784.88
2019-03-18T00:35:36.144Z,784.92
2019-03-18T00:35:40.445Z,784.9
2019-03-18T00:35:44.540Z,784.9
2019-03-18T00:35:48.842Z,784.9
2019-03-18T00:35:53.138Z,784.91
2019-03-18T00:35:57.431Z,784.91
2019-03-18T00:36:01.731Z,784.91
2019-03-18T00:36:06.081Z,784.88
2019-03-18T00:36:10.378Z,784.89
2019-03-18T00:36:14.668Z,784.9
2019-03-18T00:36:18.976Z,784.87
2019-03-18T00:36:23.350Z,784.86
2019-03-18T00:36:27.642Z,784.86
2019-03-18T00:36:31.942Z,784.92
2019-03-18T00:36:36.249Z,784.88
2019-03-18T00:36:40.352Z,784.86
2019-03-18T00:36:44.646Z,784.87
2019-03-18T00:36:48.964Z,784.89
2019-03-18T00:36:53.161Z,784.87
2019-03-18T00:36:57.371Z,784.89
2019-03-18T00:37:01.669Z,784.89
2019-03-18T00:37:05.978Z,784.89
2019-03-18T00:37:10.273Z,784.89
2019-03-18T00:37:14.568Z,784.91
2019-03-18T00:37:18.761Z,784.9
2019-03-18T00:37:23.140Z,784.88
2019-03-18T00:37:27.525Z,784.86
2019-03-18T00:37:31.826Z,784.87
2019-03-18T00:37:36.018Z,784.92
2019-03-18T00:37:40.314Z,784.91
2019-03-18T00:37:44.509Z,784.9
2019-03-18T00:37:48.807Z,784.89
2019-03-18T00:37:53.125Z,784.92
2019-03-18T00:37:57.422Z,784.89
2019-03-18T00:38:01.719Z,784.87
2019-03-18T00:38:06.032Z,784.84
2019-03-18T00:38:10.330Z,784.83
2019-03-18T00:38:14.649Z,784.8
2019-03-18T00:38:18.845Z,784.79
2019-03-18T00:38:23.139Z,784.78
2019-03-18T00:38:27.334Z,784.78
2019-03-18T00:38:31.624Z,784.81
2019-03-18T00:38:35.910Z,784.77
2019-03-18T00:38:40.201Z,784.75
2019-03-18T00:38:44.487Z,784.75
2019-03-18T00:38:48.679Z,784.76
2019-03-18T00:38:52.969Z,784.73
2019-03-18T00:38:57.164Z,784.75
2019-03-18T00:39:01.454Z,784.79
2019-03-18T00:39:05.756Z,784.79
2019-03-18T00:39:10.049Z,784.81
2019-03-18T00:39:14.251Z,784.78
2019-03-18T00:39:18.584Z,784.77
2019-03-18T00:39:22.874Z,784.78
2019-03-18T00:39:27.241Z,784.74
2019-03-18T00:39:31.531Z,784.77
2019-03-18T00:39:35.821Z,784.79
2019-03-18T00:39:40.110Z,784.78
2019-03-18T00:39:44.401Z,784.75
2019-03-18T00:39:48.691Z,784.78
2019-03-18T00:39:52.985Z,784.74
2019-03-18T00:39:57.219Z,784.75
2019-03-18T00:40:01.714Z,784.75
2019-03-18T00:40:06.022Z,784.76
2019-03-18T00:40:10.342Z,784.75
2019-03-18T00:40:14.650Z,784.74
2019-03-18T00:40:18.944Z,784.76
2019-03-18T00:40:23.250Z,784.72
2019-03-18T00:40:27.553Z,784.69
2019-03-18T00:40:31.929Z,784.7
2019-03-18T00:40:36.225Z,784.68
2019-03-18T00:40:40.517Z,784.71
2019-03-18T00:40:44.808Z,784.7
2019-03-18T00:40:49.099Z,784.69
2019-03-18T00:40:53.392Z,784.66
2019-03-18T00:40:57.690Z,784.69
2019-03-18T00:41:01.994Z,784.65
2019-03-18T00:41:06.282Z,784.64
2019-03-18T00:41:10.614Z,784.66
2019-03-18T00:41:14.877Z,784.62
2019-03-18T00:41:19.083Z,784.58
2019-03-18T00:41:23.453Z,784.58
2019-03-18T00:41:27.745Z,784.6
2019-03-18T00:41:32.035Z,784.55
2019-03-18T00:41:36.359Z,784.54
2019-03-18T00:41:40.654Z,784.56
2019-03-18T00:41:44.948Z,784.54
2019-03-18T00:41:49.235Z,784.54
2019-03-18T00:41:53.585Z,784.54
2019-03-18T00:41:57.890Z,784.54
2019-03-18T00:42:02.195Z,784.55
2019-03-18T00:42:06.414Z,784.56
2019-03-18T00:42:10.616Z,784.52
2019-03-18T00:42:14.913Z,784.54
2019-03-18T00:42:19.247Z,784.51
2019-03-18T00:42:23.545Z,784.51
2019-03-18T00:42:27.854Z,784.52
2019-03-18T00:42:32.141Z,784.51
2019-03-18T00:42:36.353Z,784.51
2019-03-18T00:42:40.721Z,784.54
2019-03-18T00:42:44.915Z,784.49
2019-03-18T00:42:49.211Z,784.5
2019-03-18T00:42:53.425Z,784.49
2019-03-18T00:42:57.796Z,784.51
2019-03-18T00:43:02.061Z,784.5
2019-03-18T00:43:06.375Z,784.52
2019-03-18T00:43:10.671Z,784.51
2019-03-18T00:43:14.983Z,784.53
2019-03-18T00:43:19.315Z,784.51
2019-03-18T00:43:23.614Z,784.5
2019-03-18T00:43:27.960Z,784.52
2019-03-18T00:43:32.246Z,784.46
2019-03-18T00:43:36.445Z,784.49
2019-03-18T00:43:40.735Z,784.47
2019-03-18T00:43:44.941Z,784.47
2019-03-18T00:43:49.238Z,784.46
2019-03-18T00:43:53.537Z,784.45
2019-03-18T00:43:57.830Z,784.38
2019-03-18T00:44:02.139Z,784.44
2019-03-18T00:44:06.344Z,784.41
2019-03-18T00:44:10.633Z,784.43
2019-03-18T00:44:14.931Z,784.41
2019-03-18T00:44:19.224Z,784.41
2019-03-18T00:44:23.640Z,784.45
2019-03-18T00:44:27.949Z,784.34
2019-03-18T00:44:32.256Z,784.39
2019-03-18T00:44:36.618Z,784.4
2019-03-18T00:44:40.922Z,784.38
2019-03-18T00:44:45.229Z,784.39
2019-03-18T00:44:49.542Z,784.35
2019-03-18T00:44:53.877Z,784.4
2019-03-18T00:44:58.081Z,784.39
2019-03-18T00:45:16.561Z,784.36
2019-03-18T00:45:20.961Z,784.37
2019-03-18T00:45:25.298Z,784.32
2019-03-18T00:45:29.588Z,784.34
2019-03-18T00:45:33.881Z,784.33
2019-03-18T00:45:41.155Z,784.32
2019-03-18T00:45:45.468Z,784.34
2019-03-18T00:45:49.662Z,784.29
2019-03-18T00:45:53.953Z,784.29
2019-03-18T00:45:58.297Z,784.32
2019-03-18T00:46:02.611Z,784.31
2019-03-18T00:46:06.905Z,784.3
2019-03-18T00:46:11.014Z,784.32
2019-03-18T00:46:15.315Z,784.28
2019-03-18T00:46:19.613Z,784.27
2019-03-18T00:46:23.904Z,784.31
2019-03-18T00:46:28.137Z,784.28
2019-03-18T00:46:32.447Z,784.26
2019-03-18T00:46:36.680Z,784.29
2019-03-18T00:46:40.918Z,784.3
2019-03-18T00:46:45.210Z,784.28
2019-03-18T00:46:49.417Z,784.27
2019-03-18T00:46:53.617Z,784.25
2019-03-18T00:46:57.880Z,784.24
2019-03-18T00:47:02.226Z,784.3
2019-03-18T00:47:06.520Z,784.24
2019-03-18T00:47:10.835Z,784.23
2019-03-18T00:47:15.137Z,784.25
2019-03-18T00:47:19.242Z,784.28
2019-03-18T00:47:23.469Z,784.27
2019-03-18T00:47:27.770Z,784.26
2019-03-18T00:47:32.058Z,784.25
2019-03-18T00:47:36.353Z,784.27
2019-03-18T00:47:40.643Z,784.25
2019-03-18T00:47:44.952Z,784.19
2019-03-18T00:47:49.257Z,784.23
2019-03-18T00:47:53.558Z,784.21
2019-03-18T00:47:57.867Z,784.2
2019-03-18T00:48:02.068Z,784.21
2019-03-18T00:48:06.402Z,784.23
2019-03-18T00:48:10.730Z,784.15
2019-03-18T00:48:15.026Z,784.16
2019-03-18T00:48:19.324Z,784.16
2019-03-18T00:48:23.600Z,784.19
2019-03-18T00:48:27.893Z,784.15
2019-03-18T00:48:32.185Z,784.16
2019-03-18T00:48:36.483Z,784.2
2019-03-18T00:48:40.783Z,784.2
2019-03-18T00:48:44.994Z,784.18
2019-03-18T00:48:49.286Z,784.2
2019-03-18T00:48:53.539Z,784.18
2019-03-18T00:48:57.836Z,784.16
2019-03-18T00:49:02.136Z,784.18
2019-03-18T00:49:06.450Z,784.23
2019-03-18T00:49:10.746Z,784.22
2019-03-18T00:49:15.040Z,784.18
2019-03-18T00:49:19.241Z,784.18
2019-03-18T00:49:23.555Z,784.21
2019-03-18T00:49:27.871Z,784.2
2019-03-18T00:49:32.171Z,784.21
2019-03-18T00:49:36.462Z,784.2
2019-03-18T00:49:40.656Z,784.19
2019-03-18T00:49:44.846Z,784.17
2019-03-18T00:49:49.135Z,784.21
2019-03-18T00:49:53.425Z,784.18
2019-03-18T00:49:57.553Z,784.17
2019-03-18T00:50:01.924Z,784.2
2019-03-18T00:50:06.227Z,784.19
2019-03-18T00:50:10.349Z,784.16
2019-03-18T00:50:14.571Z,784.22
2019-03-18T00:50:18.900Z,784.2
2019-03-18T00:50:23.194Z,784.21
2019-03-18T00:50:27.300Z,784.18
2019-03-18T00:50:31.598Z,784.2
2019-03-18T00:50:35.808Z,784.22
2019-03-18T00:50:40.171Z,784.18
2019-03-18T00:50:44.464Z,784.21
2019-03-18T00:50:48.772Z,784.21
2019-03-18T00:50:52.972Z,784.18
2019-03-18T00:50:57.275Z,784.2
2019-03-18T00:51:01.569Z,784.21
2019-03-18T00:51:05.808Z,784.2
2019-03-18T00:51:10.009Z,784.23
2019-03-18T00:51:14.207Z,784.24
2019-03-18T00:51:18.513Z,784.25
2019-03-18T00:51:22.823Z,784.21
2019-03-18T00:51:27.112Z,784.26
2019-03-18T00:51:31.409Z,784.23
2019-03-18T00:51:35.607Z,784.27
2019-03-18T00:51:39.807Z,784.21
2019-03-18T00:51:44.105Z,784.21
2019-03-18T00:51:48.433Z,784.23
2019-03-18T00:51:52.726Z,784.23
2019-03-18T00:51:57.018Z,784.22
2019-03-18T00:52:01.324Z,784.24
2019-03-18T00:52:05.522Z,784.2
2019-03-18T00:52:09.758Z,784.19
2019-03-18T00:52:13.971Z,784.26
2019-03-18T00:52:18.353Z,784.25
2019-03-18T00:52:22.646Z,784.22
2019-03-18T00:52:26.844Z,784.24
2019-03-18T00:52:31.114Z,784.22
2019-03-18T00:52:35.220Z,784.23
2019-03-18T00:52:39.513Z,784.25
2019-03-18T00:52:43.808Z,784.23
2019-03-18T00:52:47.992Z,784.19
2019-03-18T00:52:52.227Z,784.21
2019-03-18T00:52:56.526Z,784.18
2019-03-18T00:53:00.815Z,784.16
2019-03-18T00:53:05.113Z,784.18
2019-03-18T00:53:09.218Z,784.14
2019-03-18T00:53:13.430Z,784.13
2019-03-18T00:53:17.728Z,784.11
2019-03-18T00:53:21.843Z,784.14
2019-03-18T00:53:26.155Z,784.17
2019-03-18T00:53:30.455Z,784.14
2019-03-18T00:53:34.660Z,784.14
2019-03-18T00:53:38.872Z,784.13
2019-03-18T00:53:43.167Z,784.13
2019-03-18T00:53:47.366Z,784.1
2019-03-18T00:53:51.663Z,784.12
2019-03-18T00:53:55.987Z,784.14
2019-03-18T00:54:00.184Z,784.12
2019-03-18T00:54:04.509Z,784.11
2019-03-18T00:54:08.814Z,784.11
2019-03-18T00:54:12.921Z,784.15